createdAt,value
2023-05-14T00:00:36.024Z,40.5523
2023-05-14T00:01:37.762Z,40.5285
2023-05-14T00:02:39.547Z,40.5238
2023-05-14T00:03:41.451Z,40.5031
2023-05-14T00:04:42.980Z,40.5046
2023-05-14T00:05:44.704Z,40.4969
2023-05-14T00:06:46.459Z,40.4885
2023-05-14T00:07:48.157Z,40.4838
2023-05-14T00:08:49.906Z,40.4685
2023-05-14T00:09:51.659Z,40.4685
2023-05-14T00:10:53.385Z,40.4608
2023-05-14T00:11:55.097Z,40.4492
2023-05-14T00:12:56.835Z,40.4569
2023-05-14T00:13:58.567Z,40.4692
2023-05-14T00:15:00.321Z,40.4454
2023-05-14T00:16:02.064Z,40.4338
2023-05-14T00:17:03.763Z,40.4246
2023-05-14T00:18:05.532Z,40.4277
2023-05-14T00:19:07.378Z,40.4400
2023-05-14T00:20:09.077Z,40.4462
2023-05-14T00:21:10.807Z,40.4238
2023-05-14T00:22:12.519Z,40.3977
2023-05-14T00:23:14.253Z,40.3969
2023-05-14T00:24:15.989Z,40.4046
2023-05-14T00:25:17.715Z,40.3885
2023-05-14T00:26:19.456Z,40.3900
2023-05-14T00:27:21.190Z,40.3846
2023-05-14T00:28:22.933Z,40.3792
2023-05-14T00:29:24.673Z,40.3731
2023-05-14T00:30:26.407Z,40.3615
2023-05-14T00:31:28.135Z,40.3562
2023-05-14T00:32:29.911Z,40.3308
2023-05-14T00:33:31.605Z,40.3246
2023-05-14T00:34:33.333Z,40.3146
2023-05-14T00:35:35.077Z,40.3154
2023-05-14T00:36:36.787Z,40.3031
2023-05-14T00:37:38.512Z,40.3000
2023-05-14T00:38:40.251Z,40.2985
2023-05-14T00:39:42.004Z,40.2923
2023-05-14T00:40:43.738Z,40.2738
2023-05-14T00:41:45.464Z,40.2523
2023-05-14T00:42:47.190Z,40.2446
2023-05-14T00:43:48.913Z,40.2615
2023-05-14T00:44:50.665Z,40.2869
2023-05-14T00:45:52.402Z,40.2938
2023-05-14T00:46:54.198Z,40.2838
2023-05-14T00:47:55.849Z,40.2754
2023-05-14T00:48:57.570Z,40.2815
2023-05-14T00:49:59.318Z,40.2815
2023-05-14T00:51:01.058Z,40.2615
2023-05-14T00:52:02.784Z,40.2531
2023-05-14T00:53:04.497Z,40.2492
2023-05-14T00:54:06.244Z,40.2438
2023-05-14T00:55:07.985Z,40.2315
2023-05-14T00:56:09.743Z,40.2508
2023-05-14T00:57:11.466Z,40.2538
2023-05-14T00:58:13.169Z,40.2492
2023-05-14T00:59:14.891Z,40.2362
2023-05-14T01:00:16.691Z,40.2315
2023-05-14T01:01:18.414Z,40.2362
2023-05-14T01:02:20.142Z,40.2269
2023-05-14T01:03:21.872Z,40.2285
2023-05-14T01:04:23.547Z,40.2092
2023-05-14T01:05:25.276Z,40.2054
2023-05-14T01:06:27.039Z,40.2069
2023-05-14T01:07:28.765Z,40.2108
2023-05-14T01:08:30.491Z,40.1992
2023-05-14T01:09:32.207Z,40.1892
2023-05-14T01:10:33.943Z,40.1954
2023-05-14T01:11:35.685Z,40.1815
2023-05-14T01:12:37.427Z,40.1638
2023-05-14T01:13:39.159Z,40.1454
2023-05-14T01:14:40.873Z,40.1469
2023-05-14T01:15:42.602Z,40.1177
2023-05-14T01:16:44.361Z,40.1123
2023-05-14T01:17:46.118Z,40.0977
2023-05-14T01:18:47.878Z,40.0915
2023-05-14T01:19:49.531Z,40.0908
2023-05-14T01:20:51.267Z,40.0862
2023-05-14T01:21:53.012Z,40.0815
2023-05-14T01:22:54.772Z,40.0700
2023-05-14T01:23:56.488Z,40.0700
2023-05-14T01:24:58.227Z,40.0477
2023-05-14T01:25:59.937Z,40.0269
2023-05-14T01:27:01.684Z,40.0238
2023-05-14T01:28:03.397Z,40.0208
2023-05-14T01:29:05.164Z,40.0169
2023-05-14T01:30:06.886Z,40.0154
2023-05-14T01:31:08.605Z,40.0054
2023-05-14T01:32:10.433Z,40.0031
2023-05-14T01:33:12.070Z,40.0031
2023-05-14T01:34:13.820Z,39.9931
2023-05-14T01:35:15.563Z,39.9792
2023-05-14T01:36:17.265Z,39.9654
2023-05-14T01:37:19.008Z,39.9646
2023-05-14T01:38:20.755Z,39.9615
2023-05-14T01:39:22.465Z,39.9677
2023-05-14T01:40:24.395Z,39.9585
2023-05-14T01:41:25.926Z,39.9623
2023-05-14T01:42:27.680Z,39.9700
2023-05-14T01:43:29.510Z,39.9400
2023-05-14T01:44:31.136Z,39.9215
2023-05-14T01:45:32.845Z,39.9154
2023-05-14T01:46:34.579Z,39.8946
2023-05-14T01:47:36.364Z,39.8869
2023-05-14T01:48:38.059Z,39.8862
2023-05-14T01:49:39.786Z,39.8931
2023-05-14T01:50:41.502Z,39.8838
2023-05-14T01:51:43.242Z,39.8554
2023-05-14T01:52:45.004Z,39.8469
2023-05-14T01:53:46.692Z,39.8415
2023-05-14T01:54:48.435Z,39.8300
2023-05-14T01:55:50.160Z,39.8177
2023-05-14T01:56:51.907Z,39.8062
2023-05-14T01:57:53.643Z,39.7992
2023-05-14T01:58:55.369Z,39.7908
2023-05-14T01:59:57.080Z,39.7846
2023-05-14T02:00:58.888Z,39.7615
2023-05-14T02:02:00.742Z,39.7554
2023-05-14T02:03:02.359Z,39.7577
2023-05-14T02:04:04.104Z,39.7446
2023-05-14T02:05:06.913Z,39.7377
2023-05-14T02:07:27.112Z,39.7317
2023-05-14T02:08:28.754Z,39.7223
2023-05-14T02:09:30.486Z,39.7285
2023-05-14T02:12:26.325Z,39.7342
2023-05-14T02:13:28.043Z,39.7377
2023-05-14T02:14:29.773Z,39.7500
2023-05-14T02:15:31.531Z,39.7515
2023-05-14T02:16:33.257Z,39.7546
2023-05-14T02:17:35.037Z,39.7585
2023-05-14T02:18:36.759Z,39.7515
2023-05-14T02:19:38.480Z,39.7438
2023-05-14T02:20:40.188Z,39.7338
2023-05-14T02:21:41.939Z,39.7285
2023-05-14T02:22:43.655Z,39.7254
2023-05-14T02:23:45.387Z,39.7162
2023-05-14T02:24:47.132Z,39.7031
2023-05-14T02:25:48.855Z,39.6962
2023-05-14T02:26:50.621Z,39.6762
2023-05-14T02:27:52.355Z,39.6700
2023-05-14T02:28:54.072Z,39.6592
2023-05-14T02:29:55.805Z,39.6577
2023-05-14T02:34:11.282Z,39.6317
2023-05-14T02:35:13.001Z,39.6369
2023-05-14T02:36:14.761Z,39.6454
2023-05-14T02:37:16.468Z,39.6577
2023-05-14T02:38:18.259Z,39.6477
2023-05-14T02:39:19.947Z,39.6446
2023-05-14T02:40:21.871Z,39.6308
2023-05-14T02:41:23.418Z,39.6200
2023-05-14T02:42:25.173Z,39.6046
2023-05-14T02:43:26.898Z,39.5969
2023-05-14T02:44:28.651Z,39.5915
2023-05-14T02:45:30.393Z,39.5885
2023-05-14T02:46:32.314Z,39.5792
2023-05-14T02:47:36.030Z,39.5754
2023-05-14T02:48:35.571Z,39.5692
2023-05-14T02:49:37.328Z,39.5554
2023-05-14T02:50:39.064Z,39.5292
2023-05-14T02:51:40.774Z,39.5415
2023-05-14T02:52:42.503Z,39.5377
2023-05-14T02:53:44.239Z,39.5423
2023-05-14T02:54:46.004Z,39.5315
2023-05-14T02:55:47.758Z,39.5392
2023-05-14T02:56:49.443Z,39.5438
2023-05-14T02:57:51.185Z,39.5285
2023-05-14T02:58:52.922Z,39.5185
2023-05-14T02:59:54.670Z,39.5015
2023-05-14T03:00:56.486Z,39.4862
2023-05-14T03:01:58.199Z,39.4869
2023-05-14T03:02:59.876Z,39.4685
2023-05-14T03:04:01.592Z,39.4700
2023-05-14T03:05:03.323Z,39.4692
2023-05-14T03:06:05.085Z,39.4685
2023-05-14T03:07:06.818Z,39.4623
2023-05-14T03:08:08.529Z,39.4569
2023-05-14T03:09:10.269Z,39.4531
2023-05-14T03:10:11.993Z,39.4538
2023-05-14T03:11:13.763Z,39.4477
2023-05-14T03:12:15.486Z,39.4523
2023-05-14T03:13:17.221Z,39.4492
2023-05-14T03:14:18.972Z,39.4408
2023-05-14T03:15:20.672Z,39.4446
2023-05-14T03:16:22.442Z,39.4508
2023-05-14T03:17:24.217Z,39.4377
2023-05-14T03:18:25.969Z,39.4269
2023-05-14T03:19:27.619Z,39.4215
2023-05-14T03:20:29.331Z,39.4177
2023-05-14T03:21:31.072Z,39.4154
2023-05-14T03:22:32.829Z,39.3915
2023-05-14T03:23:34.585Z,39.3823
2023-05-14T03:24:36.301Z,39.3692
2023-05-14T03:25:38.027Z,39.3562
2023-05-14T03:26:39.756Z,39.3492
2023-05-14T03:27:41.514Z,39.3554
2023-05-14T03:28:43.259Z,39.3469
2023-05-14T03:29:44.958Z,39.3285
2023-05-14T03:30:46.764Z,39.3131
2023-05-14T03:31:48.445Z,39.2962
2023-05-14T03:32:50.235Z,39.2808
2023-05-14T03:33:51.934Z,39.2600
2023-05-14T03:34:53.645Z,39.2615
2023-05-14T03:35:55.385Z,39.2454
2023-05-14T03:36:57.133Z,39.2415
2023-05-14T03:37:58.877Z,39.2177
2023-05-14T03:39:00.620Z,39.2123
2023-05-14T03:40:02.358Z,39.2192
2023-05-14T03:41:04.060Z,39.2077
2023-05-14T03:42:05.796Z,39.1838
2023-05-14T03:43:07.543Z,39.1738
2023-05-14T03:44:09.294Z,39.1623
2023-05-14T03:45:11.037Z,39.1769
2023-05-14T03:46:12.740Z,39.1792
2023-05-14T03:47:14.472Z,39.1792
2023-05-14T03:48:16.298Z,39.1708
2023-05-14T03:49:17.983Z,39.1638
2023-05-14T03:50:19.697Z,39.1585
2023-05-14T03:51:21.434Z,39.1531
2023-05-14T03:52:23.151Z,39.1508
2023-05-14T03:53:24.885Z,39.1454
2023-05-14T03:54:26.638Z,39.1600
2023-05-14T03:55:28.375Z,39.1646
2023-05-14T03:56:30.095Z,39.1477
2023-05-14T03:57:31.847Z,39.1592
2023-05-14T03:58:33.586Z,39.1654
2023-05-14T03:59:35.315Z,39.1654
2023-05-14T04:00:37.032Z,39.1523
2023-05-14T04:01:38.791Z,39.1608
2023-05-14T04:02:40.561Z,39.1662
2023-05-14T04:03:42.368Z,39.1577
2023-05-14T04:04:44.000Z,39.1677
2023-05-14T04:05:45.725Z,39.1723
2023-05-14T04:06:47.455Z,39.1785
2023-05-14T04:07:49.221Z,39.1777
2023-05-14T04:08:50.908Z,39.1808
2023-05-14T04:09:52.662Z,39.1723
2023-05-14T04:10:54.424Z,39.1746
2023-05-14T04:11:56.125Z,39.1831
2023-05-14T04:12:57.876Z,39.1885
2023-05-14T04:13:59.577Z,39.2046
2023-05-14T04:15:01.330Z,39.2169
2023-05-14T04:16:03.060Z,39.2208
2023-05-14T04:17:04.814Z,39.2169
2023-05-14T04:18:06.629Z,39.2138
2023-05-14T04:19:08.322Z,39.2108
2023-05-14T04:20:09.991Z,39.2131
2023-05-14T04:21:11.727Z,39.2192
2023-05-14T04:22:13.465Z,39.2100
2023-05-14T04:23:15.214Z,39.2123
2023-05-14T04:24:16.950Z,39.2138
2023-05-14T04:25:18.667Z,39.2100
2023-05-14T04:26:20.430Z,39.2008
2023-05-14T04:27:22.138Z,39.1977
2023-05-14T04:28:23.895Z,39.1992
2023-05-14T04:29:25.634Z,39.1869
2023-05-14T04:30:27.382Z,39.1862
2023-05-14T04:31:29.130Z,39.1777
2023-05-14T04:32:30.818Z,39.1700
2023-05-14T04:33:32.569Z,39.1738
2023-05-14T04:34:34.296Z,39.1638
2023-05-14T04:35:36.067Z,39.1646
2023-05-14T04:36:37.751Z,39.1800
2023-05-14T04:37:39.472Z,39.1838
2023-05-14T04:38:41.226Z,39.1746
2023-05-14T04:39:42.963Z,39.1723
2023-05-14T04:40:44.698Z,39.1800
2023-05-14T04:41:46.429Z,39.1808
2023-05-14T04:42:48.169Z,39.1862
2023-05-14T04:43:49.892Z,39.1838
2023-05-14T04:44:51.599Z,39.1862
2023-05-14T04:45:53.363Z,39.1977
2023-05-14T04:46:55.096Z,39.1900
2023-05-14T04:47:56.859Z,39.1908
2023-05-14T04:48:58.574Z,39.2023
2023-05-14T04:50:00.396Z,39.2192
2023-05-14T04:51:02.025Z,39.2123
2023-05-14T04:52:03.767Z,39.2085
2023-05-14T04:53:05.508Z,39.2285
2023-05-14T04:54:07.238Z,39.2377
2023-05-14T04:55:08.960Z,39.2331
2023-05-14T04:56:10.696Z,39.2354
2023-05-14T04:57:12.425Z,39.2485
2023-05-14T04:58:14.139Z,39.2585
2023-05-14T04:59:15.872Z,39.2608
2023-05-14T05:00:17.610Z,39.2554
2023-05-14T05:01:19.420Z,39.2569
2023-05-14T05:02:21.092Z,39.2638
2023-05-14T05:03:22.967Z,39.2523
2023-05-14T05:04:24.540Z,39.2554
2023-05-14T05:05:26.288Z,39.2569
2023-05-14T05:06:28.050Z,39.2638
2023-05-14T05:07:29.781Z,39.2754
2023-05-14T05:08:31.501Z,39.2854
2023-05-14T05:09:33.217Z,39.2692
2023-05-14T05:10:34.998Z,39.2569
2023-05-14T05:11:36.706Z,39.2608
2023-05-14T05:12:38.466Z,39.2515
2023-05-14T05:13:40.157Z,39.2577
2023-05-14T05:14:41.889Z,39.2531
2023-05-14T05:15:43.659Z,39.2631
2023-05-14T05:16:45.382Z,39.2677
2023-05-14T05:17:47.180Z,39.2700
2023-05-14T05:18:48.879Z,39.2746
2023-05-14T05:19:50.582Z,39.2900
2023-05-14T05:20:52.297Z,39.2962
2023-05-14T05:21:54.053Z,39.3115
2023-05-14T05:22:55.791Z,39.3277
2023-05-14T05:23:57.514Z,39.3300
2023-05-14T05:24:59.240Z,39.3354
2023-05-14T05:26:00.989Z,39.3385
2023-05-14T05:27:02.742Z,39.3331
2023-05-14T05:28:04.460Z,39.3385
2023-05-14T05:29:06.213Z,39.3600
2023-05-14T05:30:07.917Z,39.3700
2023-05-14T05:31:09.662Z,39.3754
2023-05-14T05:32:11.393Z,39.3908
2023-05-14T05:33:13.131Z,39.4069
2023-05-14T05:34:14.863Z,39.4246
2023-05-14T05:35:16.581Z,39.4392
2023-05-14T05:36:18.320Z,39.4462
2023-05-14T05:37:20.049Z,39.4646
2023-05-14T05:38:21.799Z,39.4662
2023-05-14T05:39:23.546Z,39.4792
2023-05-14T05:40:25.661Z,39.4900
2023-05-14T05:41:26.972Z,39.4985
2023-05-14T05:42:28.721Z,39.5300
2023-05-14T05:43:30.437Z,39.5508
2023-05-14T05:44:32.197Z,39.5715
2023-05-14T05:45:33.922Z,39.5854
2023-05-14T05:46:35.675Z,39.5985
2023-05-14T05:47:37.468Z,39.6015
2023-05-14T05:48:39.109Z,39.6031
2023-05-14T05:49:40.870Z,39.5962
2023-05-14T05:50:42.591Z,39.5985
2023-05-14T05:51:44.326Z,39.5923
2023-05-14T05:52:46.036Z,39.5900
2023-05-14T05:53:47.842Z,39.5838
2023-05-14T05:54:49.524Z,39.5931
2023-05-14T05:55:51.237Z,39.6038
2023-05-14T05:56:52.980Z,39.6092
2023-05-14T05:57:54.714Z,39.6208
2023-05-14T05:58:56.470Z,39.6331
2023-05-14T05:59:58.196Z,39.6454
2023-05-14T06:00:59.913Z,39.6515
2023-05-14T06:02:01.667Z,39.6746
2023-05-14T06:03:03.416Z,39.6738
2023-05-14T06:04:05.115Z,39.6754
2023-05-14T06:05:06.874Z,39.6985
2023-05-14T06:06:08.622Z,39.7300
2023-05-14T06:07:10.292Z,39.7400
2023-05-14T06:08:12.046Z,39.7600
2023-05-14T06:09:13.764Z,39.7915
2023-05-14T06:10:15.537Z,39.8200
2023-05-14T06:11:17.282Z,39.8415
2023-05-14T06:12:18.967Z,39.8708
2023-05-14T06:13:20.707Z,39.9069
2023-05-14T06:14:22.432Z,39.9115
2023-05-14T06:15:24.199Z,39.9238
2023-05-14T06:16:25.931Z,39.9277
2023-05-14T06:17:27.733Z,39.9515
2023-05-14T06:18:29.411Z,39.9854
2023-05-14T06:19:31.097Z,40.0046
2023-05-14T06:20:32.856Z,40.0100
2023-05-14T06:21:34.586Z,40.0277
2023-05-14T06:22:36.329Z,40.0292
2023-05-14T06:23:38.044Z,40.0638
2023-05-14T06:24:39.767Z,40.1046
2023-05-14T06:25:41.487Z,40.1408
2023-05-14T06:26:43.231Z,40.1477
2023-05-14T06:27:44.974Z,40.1577
2023-05-14T06:28:46.697Z,40.1946
2023-05-14T06:29:48.416Z,40.2085
2023-05-14T06:30:50.148Z,40.2308
2023-05-14T06:31:51.900Z,40.2208
2023-05-14T06:32:53.654Z,40.2308
2023-05-14T06:33:55.343Z,40.2192
2023-05-14T06:34:57.094Z,40.2308
2023-05-14T06:35:58.932Z,40.2492
2023-05-14T06:37:00.654Z,40.2623
2023-05-14T06:38:02.366Z,40.2877
2023-05-14T06:39:04.103Z,40.2977
2023-05-14T06:40:05.836Z,40.3285
2023-05-14T06:41:07.580Z,40.3523
2023-05-14T06:42:09.325Z,40.3846
2023-05-14T06:43:11.019Z,40.4169
2023-05-14T06:44:12.751Z,40.4531
2023-05-14T06:45:14.478Z,40.4869
2023-05-14T06:46:16.263Z,40.5208
2023-05-14T06:47:17.989Z,40.5385
2023-05-14T06:48:19.773Z,40.5769
2023-05-14T06:49:21.403Z,40.6015
2023-05-14T06:50:23.290Z,40.6385
2023-05-14T06:51:24.887Z,40.6877
2023-05-14T06:52:26.619Z,40.7323
2023-05-14T06:53:28.370Z,40.7862
2023-05-14T06:54:30.102Z,40.7969
2023-05-14T06:55:31.835Z,40.8477
2023-05-14T06:56:33.572Z,40.8700
2023-05-14T06:57:35.303Z,40.9085
2023-05-14T06:58:37.022Z,40.9638
2023-05-14T06:59:38.732Z,40.9838
2023-05-14T07:00:40.500Z,41.0069
2023-05-14T07:01:42.250Z,41.0808
2023-05-14T07:02:44.011Z,41.1169
2023-05-14T07:03:45.702Z,41.1700
2023-05-14T07:04:47.452Z,41.1946
2023-05-14T07:05:49.134Z,41.2669
2023-05-14T07:06:50.870Z,41.3423
2023-05-14T07:07:52.605Z,41.3638
2023-05-14T07:08:54.366Z,41.3738
2023-05-14T07:09:56.100Z,41.4269
2023-05-14T07:10:57.819Z,41.4838
2023-05-14T07:11:59.538Z,41.5146
2023-05-14T07:13:01.277Z,41.5354
2023-05-14T07:14:02.999Z,41.5854
2023-05-14T07:15:04.759Z,41.6438
2023-05-14T07:16:06.476Z,41.7115
2023-05-14T07:17:08.260Z,41.7423
2023-05-14T07:18:09.934Z,41.7885
2023-05-14T07:19:11.725Z,41.8477
2023-05-14T07:20:13.412Z,41.8792
2023-05-14T07:21:15.128Z,41.9231
2023-05-14T07:22:16.876Z,41.9777
2023-05-14T07:23:19.774Z,42.0200
2023-05-14T07:24:20.316Z,42.0692
2023-05-14T07:25:22.062Z,42.0885
2023-05-14T07:26:23.799Z,42.1346
2023-05-14T07:27:25.531Z,42.1654
2023-05-14T07:28:27.243Z,42.2446
2023-05-14T07:29:28.986Z,42.3062
2023-05-14T07:30:30.718Z,42.3115
2023-05-14T07:31:32.485Z,42.3400
2023-05-14T07:32:34.191Z,42.3985
2023-05-14T07:33:35.923Z,42.4485
2023-05-14T07:34:37.644Z,42.4638
2023-05-14T07:35:39.378Z,42.4885
2023-05-14T07:36:41.083Z,42.5292
2023-05-14T07:37:42.845Z,42.5985
2023-05-14T07:38:44.550Z,42.6138
2023-05-14T07:39:46.293Z,42.6746
2023-05-14T07:40:48.028Z,42.6862
2023-05-14T07:41:49.732Z,42.7638
2023-05-14T07:42:51.472Z,42.8431
2023-05-14T07:43:53.216Z,42.9300
2023-05-14T07:44:54.950Z,42.9846
2023-05-14T07:45:56.688Z,43.0192
2023-05-14T07:46:58.442Z,43.0362
2023-05-14T07:48:00.317Z,43.0746
2023-05-14T07:49:01.856Z,43.1131
2023-05-14T07:50:03.596Z,43.1469
2023-05-14T07:51:05.352Z,43.2000
2023-05-14T07:52:07.067Z,43.2385
2023-05-14T07:53:08.776Z,43.2208
2023-05-14T07:54:10.512Z,43.3354
2023-05-14T07:55:12.247Z,43.3692
2023-05-14T07:56:14.006Z,43.3785
2023-05-14T07:57:15.730Z,43.4054
2023-05-14T07:58:17.435Z,43.4315
2023-05-14T07:59:19.178Z,43.5023
2023-05-14T08:00:20.970Z,43.5131
2023-05-14T08:01:22.657Z,43.5538
2023-05-14T08:02:24.505Z,43.5615
2023-05-14T08:03:26.205Z,43.5731
2023-05-14T08:04:27.895Z,43.5769
2023-05-14T08:05:29.583Z,43.5777
2023-05-14T08:06:31.289Z,43.5662
2023-05-14T08:07:33.038Z,43.5869
2023-05-14T08:08:34.773Z,43.6085
2023-05-14T08:09:36.481Z,43.6115
2023-05-14T08:10:38.235Z,43.6331
2023-05-14T08:11:39.961Z,43.6023
2023-05-14T08:12:41.676Z,43.5969
2023-05-14T08:13:43.434Z,43.5654
2023-05-14T08:14:45.138Z,43.5231
2023-05-14T08:15:46.884Z,43.5062
2023-05-14T08:16:48.670Z,43.4823
2023-05-14T08:17:50.371Z,43.4808
2023-05-14T08:18:52.078Z,43.4738
2023-05-14T08:19:53.773Z,43.4615
2023-05-14T08:20:55.535Z,43.4469
2023-05-14T08:21:57.256Z,43.4408
2023-05-14T08:22:58.996Z,43.4508
2023-05-14T08:24:00.707Z,43.4400
2023-05-14T08:25:02.462Z,43.4569
2023-05-14T08:26:04.200Z,43.4700
2023-05-14T08:27:05.889Z,43.5092
2023-05-14T08:28:07.653Z,43.5238
2023-05-14T08:29:10.765Z,43.5262
2023-05-14T08:30:11.105Z,43.5254
2023-05-14T08:31:12.861Z,43.5223
2023-05-14T08:32:22.766Z,43.5377
2023-05-14T08:33:16.274Z,43.5346
2023-05-14T08:34:18.029Z,43.5315
2023-05-14T08:35:19.763Z,43.5462
2023-05-14T08:36:21.499Z,43.5500
2023-05-14T08:37:23.208Z,43.5662
2023-05-14T08:38:24.927Z,43.5508
2023-05-14T08:39:26.654Z,43.5015
2023-05-14T08:40:28.414Z,43.4846
2023-05-14T08:41:30.136Z,43.4662
2023-05-14T08:42:31.848Z,43.4508
2023-05-14T08:43:33.573Z,43.4508
2023-05-14T08:44:35.353Z,43.4315
2023-05-14T08:45:37.054Z,43.4392
2023-05-14T08:46:38.793Z,43.4362
2023-05-14T08:47:40.547Z,43.4431
2023-05-14T08:48:42.241Z,43.4400
2023-05-14T08:49:43.960Z,43.4377
2023-05-14T08:50:45.709Z,43.4462
2023-05-14T08:51:47.447Z,43.4285
2023-05-14T08:52:49.160Z,43.4562
2023-05-14T08:53:50.875Z,43.4246
2023-05-14T08:54:52.611Z,43.4377
2023-05-14T08:55:54.332Z,43.4185
2023-05-14T08:56:56.079Z,43.4215
2023-05-14T08:57:57.810Z,43.4000
2023-05-14T08:58:59.505Z,43.3815
2023-05-14T09:00:01.290Z,43.3631
2023-05-14T09:01:02.968Z,43.3308
2023-05-14T09:02:04.810Z,43.2846
2023-05-14T09:03:06.487Z,43.3054
2023-05-14T09:04:08.157Z,43.3285
2023-05-14T09:05:09.898Z,43.3615
2023-05-14T09:06:11.598Z,43.3700
2023-05-14T09:07:13.351Z,43.3738
2023-05-14T09:08:15.073Z,43.3608
2023-05-14T09:09:16.819Z,43.3531
2023-05-14T09:10:18.526Z,43.3646
2023-05-14T09:11:20.241Z,43.3977
2023-05-14T09:12:22.011Z,43.4185
2023-05-14T09:13:24.140Z,43.4438
2023-05-14T09:14:25.449Z,43.4923
2023-05-14T09:15:27.161Z,43.5246
2023-05-14T09:16:28.941Z,43.5300
2023-05-14T09:17:30.671Z,43.5808
2023-05-14T09:18:32.397Z,43.5669
2023-05-14T09:19:34.110Z,43.5654
2023-05-14T09:20:35.805Z,43.5715
2023-05-14T09:21:37.518Z,43.5662
2023-05-14T09:22:39.264Z,43.5569
2023-05-14T09:23:41.004Z,43.5077
2023-05-14T09:24:42.730Z,43.4392
2023-05-14T09:25:44.460Z,43.3685
2023-05-14T09:26:46.188Z,43.3192
2023-05-14T09:27:47.913Z,43.2738
2023-05-14T09:28:49.635Z,43.2338
2023-05-14T09:29:51.341Z,43.2054
2023-05-14T09:30:53.082Z,43.2023
2023-05-14T09:31:54.898Z,43.1954
2023-05-14T09:32:56.615Z,43.2000
2023-05-14T09:33:58.292Z,43.1831
2023-05-14T09:34:59.992Z,43.1854
2023-05-14T09:36:01.723Z,43.1746
2023-05-14T09:37:03.475Z,43.1531
2023-05-14T09:38:05.190Z,43.1515
2023-05-14T09:39:06.921Z,43.1508
2023-05-14T09:40:08.637Z,43.1623
2023-05-14T09:41:10.358Z,43.1692
2023-05-14T09:42:12.099Z,43.1946
2023-05-14T09:43:13.820Z,43.2008
2023-05-14T09:44:15.545Z,43.2115
2023-05-14T09:45:17.271Z,43.2131
2023-05-14T09:46:18.990Z,43.1969
2023-05-14T09:47:20.799Z,43.2123
2023-05-14T09:48:22.579Z,43.2292
2023-05-14T09:49:24.180Z,43.2800
2023-05-14T09:50:26.153Z,43.2915
2023-05-14T09:51:27.640Z,43.2877
2023-05-14T09:52:29.360Z,43.2938
2023-05-14T09:53:31.087Z,43.2908
2023-05-14T09:54:32.815Z,43.3138
2023-05-14T09:55:34.519Z,43.3546
2023-05-14T09:56:36.286Z,43.4023
2023-05-14T09:57:38.002Z,43.4900
2023-05-14T09:58:39.709Z,43.5623
2023-05-14T09:59:41.431Z,43.6038
2023-05-14T10:00:43.189Z,43.6938
2023-05-14T10:01:44.983Z,43.8208
2023-05-14T10:02:46.699Z,43.8754
2023-05-14T10:03:48.369Z,43.8938
2023-05-14T10:04:50.325Z,43.9046
2023-05-14T10:05:51.820Z,43.9185
2023-05-14T10:06:53.546Z,44.0069
2023-05-14T10:07:55.289Z,44.0085
2023-05-14T10:08:57.003Z,44.0269
2023-05-14T10:09:59.546Z,44.0800
2023-05-14T10:11:00.472Z,44.1485
2023-05-14T10:12:02.214Z,44.1392
2023-05-14T10:13:03.899Z,44.1562
2023-05-14T10:14:05.639Z,44.1546
2023-05-14T10:15:07.386Z,44.1654
2023-05-14T10:16:09.121Z,44.1800
2023-05-14T10:17:10.950Z,44.1738
2023-05-14T10:18:12.607Z,44.1369
2023-05-14T10:19:14.305Z,44.0762
2023-05-14T10:20:16.054Z,44.0269
2023-05-14T10:21:17.764Z,44.0031
2023-05-14T10:22:19.494Z,43.9946
2023-05-14T10:23:21.226Z,43.9646
2023-05-14T10:24:22.927Z,43.9538
2023-05-14T10:25:24.669Z,43.9438
2023-05-14T10:26:26.431Z,43.9354
2023-05-14T10:27:28.140Z,43.8700
2023-05-14T10:28:29.861Z,43.8377
2023-05-14T10:29:31.571Z,43.7846
2023-05-14T10:30:33.304Z,43.7708
2023-05-14T10:31:35.094Z,43.7900
2023-05-14T10:32:36.829Z,43.7908
2023-05-14T10:33:38.513Z,43.7985
2023-05-14T10:34:40.235Z,43.8446
2023-05-14T10:35:41.943Z,43.8769
2023-05-14T10:36:43.673Z,43.9077
2023-05-14T10:37:45.429Z,43.9177
2023-05-14T10:38:47.159Z,43.8808
2023-05-14T10:39:48.978Z,43.8454
2023-05-14T10:40:52.824Z,43.8208
2023-05-14T10:41:52.418Z,43.7938
2023-05-14T10:42:54.136Z,43.7485
2023-05-14T10:43:55.897Z,43.7215
2023-05-14T10:44:57.623Z,43.6685
2023-05-14T10:45:59.331Z,43.6038
2023-05-14T10:47:01.070Z,43.5562
2023-05-14T10:48:02.788Z,43.5362
2023-05-14T10:49:04.536Z,43.4662
2023-05-14T10:50:06.266Z,43.4062
2023-05-14T10:51:08.043Z,43.3708
2023-05-14T10:52:09.691Z,43.2838
2023-05-14T10:53:11.422Z,43.2746
2023-05-14T10:54:13.168Z,43.2577
2023-05-14T10:55:14.926Z,43.2315
2023-05-14T10:56:16.632Z,43.2546
2023-05-14T10:57:18.370Z,43.2515
2023-05-14T10:58:20.068Z,43.2415
2023-05-14T10:59:21.820Z,43.2577
2023-05-14T11:00:23.746Z,43.2423
2023-05-14T11:01:25.328Z,43.2338
2023-05-14T11:02:27.043Z,43.2069
2023-05-14T11:03:28.765Z,43.1892
2023-05-14T11:04:30.456Z,43.1931
2023-05-14T11:05:32.203Z,43.2185
2023-05-14T11:06:33.930Z,43.2631
2023-05-14T11:07:35.674Z,43.2208
2023-05-14T11:08:37.395Z,43.1962
2023-05-14T11:09:39.106Z,43.1369
2023-05-14T11:10:40.826Z,43.0638
2023-05-14T11:11:42.604Z,43.0254
2023-05-14T11:12:44.323Z,43.0077
2023-05-14T11:13:46.051Z,43.0308
2023-05-14T11:14:47.783Z,43.1038
2023-05-14T11:15:49.503Z,43.1869
2023-05-14T11:16:51.233Z,43.2854
2023-05-14T11:17:52.954Z,43.3485
2023-05-14T11:18:54.739Z,43.3854
2023-05-14T11:19:56.412Z,43.4192
2023-05-14T11:20:58.146Z,43.4138
2023-05-14T11:21:59.850Z,43.3885
2023-05-14T11:23:01.577Z,43.3777
2023-05-14T11:24:03.303Z,43.3731
2023-05-14T11:25:05.052Z,43.3977
2023-05-14T11:26:06.841Z,43.4108
2023-05-14T11:27:08.497Z,43.4238
2023-05-14T11:28:10.248Z,43.4169
2023-05-14T11:29:11.961Z,43.3900
2023-05-14T11:30:13.689Z,43.3469
2023-05-14T11:31:15.444Z,43.3138
2023-05-14T11:32:17.169Z,43.2900
2023-05-14T11:33:18.954Z,43.2715
2023-05-14T11:34:20.627Z,43.2831
2023-05-14T11:35:22.355Z,43.2900
2023-05-14T11:36:24.061Z,43.2862
2023-05-14T11:37:25.793Z,43.2662
2023-05-14T11:38:27.527Z,43.2800
2023-05-14T11:39:29.257Z,43.2777
2023-05-14T11:40:31.002Z,43.2631
2023-05-14T11:41:32.705Z,43.2085
2023-05-14T11:42:34.448Z,43.1823
2023-05-14T11:43:36.166Z,43.1669
2023-05-14T11:44:37.921Z,43.1585
2023-05-14T11:45:39.693Z,43.1608
2023-05-14T11:46:41.413Z,43.1600
2023-05-14T11:47:43.116Z,43.1508
2023-05-14T11:48:44.809Z,43.1315
2023-05-14T11:49:46.556Z,43.1292
2023-05-14T11:50:48.284Z,43.1431
2023-05-14T11:51:50.013Z,43.1508
2023-05-14T11:52:51.723Z,43.1538
2023-05-14T11:53:53.445Z,43.1277
2023-05-14T11:54:55.193Z,43.1392
2023-05-14T11:55:56.923Z,43.1400
2023-05-14T11:56:58.625Z,43.1269
2023-05-14T11:58:00.365Z,43.1062
2023-05-14T11:59:02.091Z,43.0585
2023-05-14T12:00:03.820Z,43.0123
2023-05-14T12:01:05.582Z,42.9638
2023-05-14T12:02:07.337Z,42.9346
2023-05-14T12:03:09.065Z,42.9177
2023-05-14T12:04:10.843Z,42.8946
2023-05-14T12:05:12.570Z,42.8746
2023-05-14T12:06:14.213Z,42.8800
2023-05-14T12:07:15.952Z,42.8515
2023-05-14T12:08:17.660Z,42.8300
2023-05-14T12:09:19.380Z,42.8262
2023-05-14T12:10:21.121Z,42.8177
2023-05-14T12:11:22.863Z,42.7923
2023-05-14T12:12:24.600Z,42.7577
2023-05-14T12:13:26.325Z,42.6931
2023-05-14T12:14:28.037Z,42.6285
2023-05-14T12:15:29.775Z,42.4900
2023-05-14T12:16:31.588Z,42.3623
2023-05-14T12:17:33.261Z,42.3123
2023-05-14T12:18:35.060Z,42.2031
2023-05-14T12:19:36.697Z,42.1300
2023-05-14T12:20:38.430Z,42.0623
2023-05-14T12:21:40.165Z,41.9846
2023-05-14T12:22:41.864Z,41.9662
2023-05-14T12:23:43.605Z,41.9638
2023-05-14T12:24:45.347Z,41.9615
2023-05-14T12:25:47.073Z,41.9415
2023-05-14T12:26:48.814Z,41.9469
2023-05-14T12:27:50.515Z,41.9854
2023-05-14T12:28:52.256Z,42.0223
2023-05-14T12:29:53.997Z,42.0423
2023-05-14T12:30:55.747Z,42.0700
2023-05-14T12:31:57.546Z,42.1200
2023-05-14T12:32:59.250Z,42.1831